createdAt,value
2018-03-27T00:01:18.313Z,12.60
2018-03-27T00:03:45.806Z,17.92
2018-03-27T00:06:13.314Z,15.32
2018-03-27T00:08:40.793Z,16.10
2018-03-27T00:11:09.168Z,15.98
2018-03-27T00:13:37.413Z,13.20
2018-03-27T00:16:04.914Z,20.27
2018-03-27T00:18:33.159Z,13.95
2018-03-27T00:21:00.658Z,18.58
2018-03-27T00:23:28.146Z,16.98
2018-03-27T00:25:55.647Z,17.25
2018-03-27T00:28:37.194Z,17.60
2018-03-27T00:31:16.642Z,20.40
2018-03-27T00:33:55.996Z,14.23
2018-03-27T00:36:35.665Z,11.95
2018-03-27T00:39:15.822Z,15.02
2018-03-27T00:44:38.897Z,14.75
2018-03-27T00:47:07.151Z,12.20
2018-03-27T00:49:34.641Z,11.75
2018-03-27T00:52:02.160Z,18.40
2018-03-27T00:54:29.734Z,19.08
2018-03-27T00:56:58.029Z,15.23
2018-03-27T00:59:26.313Z,16.37
2018-03-27T01:01:54.195Z,13.13
2018-03-27T01:04:21.739Z,18.12
2018-03-27T01:06:49.997Z,18.33
2018-03-27T01:09:18.265Z,18.08
2018-03-27T01:11:45.849Z,16.90
2018-03-27T01:14:13.386Z,19.00
2018-03-27T01:16:41.675Z,20.73
2018-03-27T01:19:09.953Z,23.65
2018-03-27T01:21:38.323Z,18.73
2018-03-27T01:24:06.602Z,19.62
2018-03-27T01:26:34.870Z,22.40
2018-03-27T01:29:03.142Z,27.00
2018-03-27T01:31:30.643Z,24.52
2018-03-27T01:33:58.144Z,25.00
2018-03-27T01:36:25.679Z,28.20
2018-03-27T01:38:53.218Z,21.65
2018-03-27T01:41:20.694Z,21.10
2018-03-27T01:43:48.177Z,17.70
2018-03-27T01:46:15.691Z,13.43
2018-03-27T01:48:43.170Z,11.57
2018-03-27T01:51:10.672Z,12.10
2018-03-27T01:53:38.938Z,11.00
2018-03-27T01:56:06.577Z,14.10
2018-03-27T01:58:34.065Z,11.68
2018-03-27T02:01:01.728Z,12.07
2018-03-27T02:03:30.025Z,19.55
2018-03-27T02:05:57.678Z,18.15
2018-03-27T02:08:25.932Z,16.87
2018-03-27T02:10:53.733Z,16.73
2018-03-27T02:13:26.965Z,17.30
2018-03-27T02:16:00.204Z,14.65
2018-03-27T02:18:34.301Z,20.17
2018-03-27T02:21:08.161Z,20.77
2018-03-27T02:23:35.638Z,21.15
2018-03-27T02:26:03.142Z,21.42
2018-03-27T02:28:31.397Z,24.60
2018-03-27T02:31:00.055Z,26.25
2018-03-27T02:33:27.662Z,28.98
2018-03-27T02:35:55.918Z,29.58
2018-03-27T02:38:23.418Z,26.65
2018-03-27T02:40:50.943Z,27.05
2018-03-27T02:43:19.215Z,25.30
2018-03-27T02:45:47.475Z,33.92
2018-03-27T02:48:14.974Z,26.73
2018-03-27T02:50:42.468Z,34.08
2018-03-27T02:53:09.969Z,37.25
2018-03-27T02:55:38.219Z,33.95
2018-03-27T02:58:05.719Z,36.30
2018-03-27T03:00:33.264Z,42.03
2018-03-27T03:03:01.550Z,35.03
2018-03-27T03:05:29.790Z,31.58
2018-03-27T03:07:57.289Z,34.50
2018-03-27T03:10:24.768Z,39.38
2018-03-27T03:12:52.258Z,41.28
2018-03-27T03:15:19.758Z,36.85
2018-03-27T03:17:48.033Z,34.95
2018-03-27T03:20:16.297Z,33.17
2018-03-27T03:22:43.863Z,38.33
2018-03-27T03:25:12.148Z,36.63
2018-03-27T03:27:39.703Z,35.50
2018-03-27T03:30:07.970Z,30.85
2018-03-27T03:32:36.263Z,30.30
2018-03-27T03:35:04.529Z,34.85
2018-03-27T03:37:32.803Z,27.67
2018-03-27T03:40:01.067Z,30.48
2018-03-27T03:42:28.558Z,25.83
2018-03-27T03:44:56.070Z,28.10
2018-03-27T03:47:23.576Z,31.87
2018-03-27T03:49:51.082Z,37.78
2018-03-27T03:52:18.570Z,42.40
2018-03-27T03:54:46.834Z,34.85
2018-03-27T03:57:15.114Z,31.48
2018-03-27T03:59:43.405Z,28.65
2018-03-27T04:02:11.666Z,29.40
2018-03-27T04:04:39.937Z,38.25
2018-03-27T04:07:07.516Z,37.67
2018-03-27T04:09:35.871Z,31.40
2018-03-27T04:12:03.404Z,30.58
2018-03-27T04:14:30.864Z,29.20
2018-03-27T04:16:58.397Z,36.10
2018-03-27T04:19:25.863Z,36.97
2018-03-27T04:21:53.350Z,34.50
2018-03-27T04:24:20.842Z,32.55
2018-03-27T04:26:49.110Z,45.25
2018-03-27T04:29:17.391Z,34.03
2018-03-27T04:31:45.661Z,41.37
2018-03-27T04:34:13.911Z,39.15
2018-03-27T04:36:41.494Z,46.95
2018-03-27T04:39:09.786Z,43.75
2018-03-27T04:41:38.054Z,40.95
2018-03-27T04:44:06.299Z,46.75
2018-03-27T04:46:33.807Z,43.78
2018-03-27T04:49:01.295Z,45.53
2018-03-27T04:51:28.804Z,47.28
2018-03-27T04:53:57.092Z,41.03
2018-03-27T04:56:24.633Z,48.33
2018-03-27T04:58:52.897Z,50.42
2018-03-27T05:01:20.381Z,50.85
2018-03-27T05:03:48.895Z,46.72
2018-03-27T05:06:16.394Z,53.38
2018-03-27T05:08:43.966Z,49.40
2018-03-27T05:11:12.250Z,50.15
2018-03-27T05:13:40.518Z,57.75
2018-03-27T05:16:08.801Z,52.60
2018-03-27T05:18:37.064Z,48.40
2018-03-27T05:21:05.346Z,46.95
2018-03-27T05:23:33.622Z,49.53
2018-03-27T05:26:01.902Z,49.88
2018-03-27T05:28:30.181Z,47.58
2018-03-27T05:30:58.474Z,53.75
2018-03-27T05:33:25.963Z,51.33
2018-03-27T05:35:53.479Z,52.88
2018-03-27T05:38:21.766Z,52.97
2018-03-27T05:40:49.279Z,49.33
2018-03-27T05:43:16.807Z,54.38
2018-03-27T05:45:44.307Z,52.72
2018-03-27T05:48:11.887Z,47.83
2018-03-27T05:50:40.297Z,46.42
2018-03-27T05:53:07.766Z,49.83
2018-03-27T05:55:35.281Z,46.60
2018-03-27T05:58:03.621Z,45.22
2018-03-27T06:00:31.131Z,46.95
2018-03-27T06:02:58.622Z,45.65
2018-03-27T06:05:26.122Z,43.28
2018-03-27T06:07:53.708Z,44.53
2018-03-27T06:10:22.109Z,44.15
2018-03-27T06:12:49.629Z,40.78
2018-03-27T06:15:17.914Z,39.47
2018-03-27T06:17:45.410Z,40.00
2018-03-27T06:20:12.897Z,47.25
2018-03-27T06:22:40.398Z,44.83
2018-03-27T06:25:07.937Z,40.60
2018-03-27T06:27:36.336Z,38.78
2018-03-27T06:30:04.587Z,38.05
2018-03-27T06:32:32.854Z,38.58
2018-03-27T06:35:00.392Z,40.25
2018-03-27T06:37:27.998Z,38.53
2018-03-27T06:39:56.272Z,41.97
2018-03-27T06:42:24.580Z,40.72
2018-03-27T06:44:52.098Z,41.55
2018-03-27T06:47:20.366Z,36.42
2018-03-27T06:49:48.631Z,44.42
2018-03-27T06:52:16.218Z,38.50
2018-03-27T06:54:44.471Z,36.95
2018-03-27T06:57:12.067Z,38.78
2018-03-27T06:59:39.540Z,40.72
2018-03-27T07:02:07.026Z,38.30
2018-03-27T07:04:34.522Z,36.70
2018-03-27T07:07:02.830Z,42.15
2018-03-27T07:09:31.108Z,42.45
2018-03-27T07:11:58.622Z,36.55
2018-03-27T07:14:26.943Z,40.12
2018-03-27T07:16:55.180Z,42.33
2018-03-27T07:19:22.783Z,35.55
2018-03-27T07:21:51.038Z,33.03
2018-03-27T07:24:19.289Z,39.67
2018-03-27T07:26:46.783Z,40.05
2018-03-27T07:29:14.275Z,33.97
2018-03-27T07:31:41.776Z,41.10
2018-03-27T07:34:10.065Z,32.10
2018-03-27T07:36:37.571Z,38.63
2018-03-27T07:39:05.841Z,37.35
2018-03-27T07:41:33.354Z,33.97
2018-03-27T07:44:00.855Z,37.70
2018-03-27T07:46:28.357Z,37.10
2018-03-27T07:48:56.637Z,33.15
2018-03-27T07:51:24.904Z,34.47
2018-03-27T07:53:53.191Z,35.67
2018-03-27T07:56:21.455Z,35.35
2018-03-27T07:58:49.743Z,37.55
2018-03-27T08:01:18.034Z,37.40
2018-03-27T08:03:45.546Z,37.73
2018-03-27T08:06:13.854Z,36.80
2018-03-27T08:08:42.526Z,37.55
2018-03-27T08:11:11.069Z,39.03
2018-03-27T08:13:39.075Z,42.58
2018-03-27T08:16:07.455Z,38.25
2018-03-27T08:18:35.862Z,41.15
2018-03-27T08:21:03.369Z,35.10
2018-03-27T08:23:30.861Z,41.15
2018-03-27T08:25:59.246Z,44.30
2018-03-27T08:28:27.492Z,42.05
2018-03-27T08:30:54.987Z,50.22
2018-03-27T08:33:22.530Z,41.20
2018-03-27T08:35:50.794Z,45.85
2018-03-27T08:38:21.659Z,51.37
2018-03-27T08:40:49.902Z,57.05
2018-03-27T08:43:17.480Z,47.53
2018-03-27T08:45:45.731Z,52.03
2018-03-27T08:48:14.730Z,45.80
2018-03-27T08:50:42.236Z,45.25
2018-03-27T08:53:09.740Z,49.47
2018-03-27T08:55:37.178Z,48.08
2018-03-27T08:58:04.773Z,50.42
2018-03-27T09:00:33.043Z,41.47
2018-03-27T09:03:00.531Z,42.38
2018-03-27T09:05:28.067Z,44.00
2018-03-27T09:07:56.350Z,42.22
2018-03-27T09:10:24.627Z,36.70
2018-03-27T09:12:52.871Z,36.65
2018-03-27T09:15:20.409Z,37.65
2018-03-27T09:17:47.911Z,39.20
2018-03-27T09:20:16.322Z,39.45
2018-03-27T09:22:43.820Z,32.42
2018-03-27T09:25:11.321Z,38.63
2018-03-27T09:27:38.867Z,33.20
2018-03-27T09:30:07.150Z,26.02
2018-03-27T09:32:35.449Z,27.52
2018-03-27T09:35:02.980Z,26.05
2018-03-27T09:37:31.238Z,22.10
2018-03-27T09:39:58.733Z,23.12
2018-03-27T09:42:26.247Z,20.10
2018-03-27T09:44:53.755Z,23.25
2018-03-27T09:47:21.236Z,21.02
2018-03-27T09:49:48.857Z,18.42
2018-03-27T09:52:17.122Z,20.00
2018-03-27T09:54:45.407Z,20.27
2018-03-27T09:57:14.553Z,17.33
2018-03-27T09:59:42.052Z,22.13
2018-03-27T10:02:09.627Z,17.12
2018-03-27T10:04:37.132Z,18.60
2018-03-27T10:07:04.651Z,10.48
2018-03-27T10:09:32.202Z,13.05
2018-03-27T10:12:00.501Z,10.90
2018-03-27T10:14:27.987Z,12.37
2018-03-27T10:16:55.590Z,12.25
2018-03-27T10:19:23.855Z,13.68
2018-03-27T10:21:52.242Z,13.90
2018-03-27T10:24:20.528Z,15.30
2018-03-27T10:26:48.791Z,13.85
2018-03-27T10:29:17.094Z,13.38
2018-03-27T10:31:44.626Z,14.02
2018-03-27T10:34:12.923Z,13.90
2018-03-27T10:36:40.414Z,17.08
2018-03-27T10:39:08.536Z,21.25
2018-03-27T10:41:36.938Z,17.12
2018-03-27T10:44:04.479Z,17.67
2018-03-27T10:46:32.854Z,28.35
2018-03-27T10:49:01.132Z,18.95
2018-03-27T10:51:29.410Z,18.65
2018-03-27T10:53:57.682Z,21.65
2018-03-27T10:56:25.934Z,16.25
2018-03-27T10:58:53.455Z,16.50
2018-03-27T11:01:20.967Z,19.15
2018-03-27T11:03:49.382Z,18.05
2018-03-27T11:06:16.856Z,19.35
2018-03-27T11:08:44.465Z,16.87
2018-03-27T11:11:16.238Z,16.50
2018-03-27T11:13:44.489Z,16.20
2018-03-27T11:16:12.270Z,21.83
2018-03-27T11:18:40.543Z,20.50
2018-03-27T11:21:08.859Z,17.92
2018-03-27T11:23:36.366Z,20.48
2018-03-27T11:26:03.937Z,22.33
2018-03-27T11:28:32.215Z,21.60
2018-03-27T11:31:00.497Z,17.92
2018-03-27T11:33:28.763Z,24.45
2018-03-27T11:35:57.042Z,16.70
2018-03-27T11:38:25.305Z,24.65
2018-03-27T11:40:52.834Z,18.73
2018-03-27T11:43:21.157Z,24.33
2018-03-27T11:45:49.431Z,20.15
2018-03-27T11:48:16.919Z,23.60
2018-03-27T11:50:44.433Z,19.77
2018-03-27T11:53:12.027Z,22.83
2018-03-27T11:55:39.576Z,20.67
2018-03-27T11:58:08.090Z,23.10
2018-03-27T12:00:35.599Z,22.58
2018-03-27T12:03:03.166Z,19.40
2018-03-27T12:05:31.458Z,20.17
2018-03-27T12:07:59.000Z,26.25
2018-03-27T12:10:27.270Z,22.30
2018-03-27T12:12:54.787Z,23.65
2018-03-27T12:15:22.295Z,24.55
2018-03-27T12:17:50.575Z,25.55
2018-03-27T12:20:18.867Z,25.80
2018-03-27T12:22:46.366Z,25.85
2018-03-27T12:25:13.869Z,28.50
2018-03-27T12:27:42.349Z,26.10
2018-03-27T12:30:10.819Z,33.33
2018-03-27T12:32:39.098Z,27.08
2018-03-27T12:35:07.386Z,30.02
2018-03-27T12:37:35.670Z,30.27
2018-03-27T12:40:03.180Z,30.50
2018-03-27T12:42:30.695Z,28.17
2018-03-27T12:44:58.187Z,27.95
2018-03-27T12:47:25.690Z,28.40
2018-03-27T12:49:54.070Z,30.58
2018-03-27T12:52:22.358Z,31.05
2018-03-27T12:54:49.896Z,35.42
2018-03-27T12:57:17.487Z,31.60
2018-03-27T12:59:45.755Z,31.75
2018-03-27T13:02:13.306Z,34.95
2018-03-27T13:04:41.564Z,30.52
2018-03-27T13:07:09.069Z,28.50
2018-03-27T13:09:36.587Z,29.95
2018-03-27T13:12:04.907Z,29.95
2018-03-27T13:14:32.460Z,34.42
2018-03-27T13:16:59.914Z,30.73
2018-03-27T13:19:27.417Z,28.87
2018-03-27T13:21:54.937Z,30.95
2018-03-27T13:24:22.575Z,26.95
2018-03-27T13:26:50.084Z,28.83
2018-03-27T13:29:17.566Z,28.00
2018-03-27T13:31:45.173Z,28.02
2018-03-27T13:34:12.704Z,21.50
2018-03-27T13:36:40.989Z,28.12
2018-03-27T13:39:08.486Z,21.52
2018-03-27T13:41:36.031Z,23.17
2018-03-27T13:44:06.825Z,27.73
2018-03-27T13:46:35.102Z,22.85
2018-03-27T13:49:03.393Z,28.60
2018-03-27T13:51:30.978Z,23.58
2018-03-27T13:53:58.519Z,27.85
2018-03-27T13:56:26.016Z,26.98
2018-03-27T13:58:53.540Z,19.90
2018-03-27T14:01:21.021Z,24.37
2018-03-27T14:03:48.529Z,26.75
2018-03-27T14:06:17.116Z,21.15
2018-03-27T14:08:45.383Z,25.98
2018-03-27T14:11:13.668Z,26.70
2018-03-27T14:13:42.254Z,23.98
2018-03-27T14:16:10.531Z,28.45
2018-03-27T14:18:39.217Z,26.83
2018-03-27T14:21:07.590Z,32.33
2018-03-27T14:23:36.321Z,28.23
2018-03-27T14:26:04.655Z,24.83
2018-03-27T14:28:32.923Z,35.05
2018-03-27T14:31:01.302Z,27.10
2018-03-27T14:33:29.624Z,31.45
2018-03-27T14:35:57.091Z,33.83
2018-03-27T14:38:24.691Z,31.48
2018-03-27T14:40:52.230Z,26.92
2018-03-27T14:43:19.832Z,24.35
2018-03-27T14:45:48.114Z,29.17
2018-03-27T14:48:15.610Z,24.75
2018-03-27T14:50:43.835Z,29.85
2018-03-27T14:53:12.101Z,26.85
2018-03-27T14:55:40.370Z,27.20
2018-03-27T14:58:07.914Z,27.15
2018-03-27T15:00:35.450Z,30.33
2018-03-27T15:03:02.922Z,28.15
2018-03-27T15:05:30.453Z,29.25
2018-03-27T15:07:57.970Z,30.75
2018-03-27T15:10:26.215Z,32.03
2018-03-27T15:12:53.806Z,28.60
2018-03-27T15:15:21.378Z,25.65
2018-03-27T15:17:49.698Z,30.80
2018-03-27T15:20:17.296Z,28.92
2018-03-27T15:22:44.778Z,30.65
2018-03-27T15:25:13.042Z,28.33
2018-03-27T15:27:41.418Z,32.90
2018-03-27T15:30:09.735Z,26.65
2018-03-27T15:32:37.254Z,31.10
2018-03-27T15:35:05.542Z,34.00
2018-03-27T15:37:33.802Z,36.25
2018-03-27T15:40:01.303Z,32.50
2018-03-27T15:42:28.870Z,34.00
2018-03-27T15:44:56.485Z,34.53
2018-03-27T15:47:24.764Z,37.15
2018-03-27T15:49:53.145Z,35.15
2018-03-27T15:52:21.435Z,35.00
2018-03-27T15:54:49.690Z,33.65
2018-03-27T15:57:17.986Z,35.22
2018-03-27T15:59:45.478Z,35.70
2018-03-27T16:02:12.981Z,35.60
2018-03-27T16:04:41.272Z,34.65
2018-03-27T16:07:09.647Z,34.92
2018-03-27T16:09:37.189Z,34.65
2018-03-27T16:12:04.823Z,30.90
2018-03-27T16:14:32.411Z,27.85
2018-03-27T16:17:00.070Z,32.42
2018-03-27T16:19:27.648Z,27.45
2018-03-27T16:21:55.921Z,24.27
2018-03-27T16:24:23.482Z,16.52
2018-03-27T16:26:51.762Z,17.60
2018-03-27T16:29:20.066Z,15.63
2018-03-27T16:31:47.744Z,16.90
2018-03-27T16:34:15.395Z,18.00
2018-03-27T16:36:42.827Z,12.27
2018-03-27T16:39:10.383Z,14.90
2018-03-27T16:41:37.934Z,16.27
2018-03-27T16:44:06.192Z,16.65
2018-03-27T16:46:33.696Z,20.58
2018-03-27T16:49:01.537Z,16.52
2018-03-27T16:51:29.784Z,18.77
2018-03-27T16:53:57.280Z,17.15
2018-03-27T16:56:24.758Z,18.15
2018-03-27T16:58:52.253Z,17.37
2018-03-27T17:01:19.750Z,16.25
2018-03-27T17:03:47.367Z,16.83
2018-03-27T17:06:15.549Z,16.70
2018-03-27T17:08:43.122Z,18.92
2018-03-27T17:11:11.502Z,21.08
2018-03-27T17:13:39.071Z,22.83
2018-03-27T17:16:07.505Z,21.85
2018-03-27T17:18:34.962Z,19.83
2018-03-27T17:21:02.558Z,23.17
2018-03-27T17:23:30.846Z,24.70
2018-03-27T17:25:59.115Z,24.65
2018-03-27T17:28:27.407Z,27.05
2018-03-27T17:30:55.054Z,29.48
2018-03-27T17:33:23.311Z,29.83
2018-03-27T17:35:50.794Z,28.48
2018-03-27T17:38:18.446Z,32.38
2018-03-27T17:40:46.720Z,31.12
2018-03-27T17:43:15.001Z,34.38
2018-03-27T17:45:43.275Z,28.50
2018-03-27T17:48:11.589Z,29.25
2018-03-27T17:50:40.050Z,33.08
2018-03-27T17:53:08.308Z,35.83
2018-03-27T17:55:36.587Z,31.65
2018-03-27T17:58:04.956Z,37.72
2018-03-27T18:00:33.248Z,38.50
2018-03-27T18:03:02.228Z,34.78
2018-03-27T18:05:30.511Z,35.78
2018-03-27T18:07:59.094Z,39.75
2018-03-27T18:10:27.500Z,40.10
2018-03-27T18:12:55.022Z,45.03
2018-03-27T18:15:23.602Z,42.95
2018-03-27T18:17:51.891Z,51.75
2018-03-27T18:20:20.147Z,43.45
2018-03-27T18:22:47.681Z,50.08
2018-03-27T18:25:15.171Z,55.70
2018-03-27T18:27:42.777Z,49.33
2018-03-27T18:30:10.314Z,49.50
2018-03-27T18:32:39.494Z,47.83
2018-03-27T18:35:07.743Z,52.60
2018-03-27T18:37:36.153Z,53.75
2018-03-27T18:40:04.515Z,50.08
2018-03-27T18:42:32.088Z,51.37
2018-03-27T18:45:01.601Z,59.75
2018-03-27T18:47:29.290Z,58.03
2018-03-27T18:49:57.277Z,63.87
2018-03-27T18:52:25.010Z,50.75
2018-03-27T18:54:54.457Z,55.05
2018-03-27T18:57:22.889Z,57.10
2018-03-27T18:59:50.667Z,62.90
2018-03-27T19:02:18.178Z,56.85
2018-03-27T19:04:46.474Z,61.42
2018-03-27T19:07:14.735Z,63.38
2018-03-27T19:09:43.131Z,59.42
2018-03-27T19:12:11.398Z,58.17
2018-03-27T19:14:39.689Z,65.75
2018-03-27T19:17:08.060Z,61.75
2018-03-27T19:19:36.346Z,61.08
2018-03-27T19:22:03.846Z,65.68
2018-03-27T19:24:31.375Z,64.57
2018-03-27T19:26:58.999Z,56.63
2018-03-27T19:29:27.302Z,61.63
2018-03-27T19:31:54.804Z,55.47
2018-03-27T19:34:22.364Z,50.15
2018-03-27T19:36:49.905Z,52.90
2018-03-27T19:39:17.424Z,61.58
2018-03-27T19:41:45.689Z,52.38
2018-03-27T19:44:14.066Z,59.63
2018-03-27T19:46:42.396Z,61.47
2018-03-27T19:49:10.006Z,62.38
2018-03-27T19:51:38.268Z,65.37
2018-03-27T19:54:05.842Z,55.38
2018-03-27T19:56:34.265Z,52.67
2018-03-27T19:59:01.851Z,53.55
2018-03-27T20:01:29.334Z,60.20
2018-03-27T20:03:57.742Z,62.00
2018-03-27T20:06:25.245Z,53.67
2018-03-27T20:08:52.739Z,55.30
2018-03-27T20:11:20.330Z,58.15
2018-03-27T20:13:47.970Z,57.40
2018-03-27T20:16:15.449Z,53.55
2018-03-27T20:18:42.973Z,53.97
2018-03-27T20:21:11.221Z,53.38
2018-03-27T20:23:38.715Z,56.15
2018-03-27T20:26:07.311Z,53.10
2018-03-27T20:28:34.843Z,52.62
2018-03-27T20:31:03.149Z,50.20
2018-03-27T20:33:31.089Z,49.45
2018-03-27T20:35:59.403Z,51.85
2018-03-27T20:38:27.026Z,48.15
2018-03-27T20:40:55.317Z,47.58
2018-03-27T20:43:23.986Z,46.75
2018-03-27T20:45:52.256Z,50.10
2018-03-27T20:48:19.785Z,46.00
2018-03-27T20:50:47.270Z,47.03
2018-03-27T20:53:14.750Z,48.33
2018-03-27T20:55:43.034Z,45.20
2018-03-27T20:58:10.535Z,46.22
2018-03-27T21:00:38.383Z,50.00
2018-03-27T21:03:05.902Z,43.92
2018-03-27T21:05:34.163Z,44.42
2018-03-27T21:08:01.735Z,43.53
2018-03-27T21:10:30.063Z,45.28
2018-03-27T21:12:57.582Z,50.63
2018-03-27T21:15:25.143Z,44.63
2018-03-27T21:17:53.827Z,46.17
2018-03-27T21:20:22.087Z,50.80
2018-03-27T21:22:52.566Z,44.00
2018-03-27T21:25:20.912Z,46.75
2018-03-27T21:27:48.474Z,41.50
2018-03-27T21:30:15.966Z,49.97
2018-03-27T21:32:43.582Z,44.75
2018-03-27T21:35:12.611Z,46.65
2018-03-27T21:37:40.649Z,47.38
2018-03-27T21:40:08.221Z,48.20
2018-03-27T21:42:35.709Z,45.12
2018-03-27T21:45:04.005Z,45.50
2018-03-27T21:47:31.694Z,47.03
2018-03-27T21:49:59.981Z,43.95
2018-03-27T21:52:28.234Z,47.58
2018-03-27T21:54:55.745Z,47.70
2018-03-27T21:57:23.217Z,42.78
2018-03-27T21:59:50.784Z,46.25
2018-03-27T22:02:18.376Z,45.90
2018-03-27T22:04:45.863Z,44.63
2018-03-27T22:07:13.396Z,46.65
2018-03-27T22:09:41.842Z,44.17
2018-03-27T22:12:09.438Z,43.05
2018-03-27T22:14:37.708Z,40.78
2018-03-27T22:17:05.993Z,47.17
2018-03-27T22:19:34.251Z,44.67
2018-03-27T22:22:01.856Z,44.47
2018-03-27T22:24:31.083Z,47.25
2018-03-27T22:26:58.594Z,44.20
2018-03-27T22:29:26.958Z,45.88
2018-03-27T22:31:55.342Z,45.15
2018-03-27T22:34:23.621Z,39.92
2018-03-27T22:36:51.900Z,46.75
2018-03-27T22:39:20.185Z,49.85
2018-03-27T22:41:48.516Z,38.65
2018-03-27T22:44:16.026Z,49.55
2018-03-27T22:46:43.524Z,40.22
2018-03-27T22:49:11.954Z,45.70
2018-03-27T22:51:40.216Z,50.30
2018-03-27T22:54:08.485Z,52.80
2018-03-27T22:56:35.987Z,47.28
2018-03-27T22:59:03.515Z,50.42
2018-03-27T23:01:31.858Z,42.45
2018-03-27T23:03:59.350Z,41.97
2018-03-27T23:06:27.740Z,39.22
2018-03-27T23:08:56.111Z,40.85
2018-03-27T23:11:24.425Z,45.92
2018-03-27T23:13:51.890Z,53.42
2018-03-27T23:16:19.432Z,49.25
2018-03-27T23:18:46.925Z,50.12
2018-03-27T23:21:14.424Z,44.50
2018-03-27T23:23:42.725Z,40.53
2018-03-27T23:26:10.272Z,43.53
2018-03-27T23:28:38.676Z,41.88
2018-03-27T23:31:06.290Z,40.60
2018-03-27T23:33:34.580Z,45.78
2018-03-27T23:36:02.841Z,40.12
2018-03-27T23:38:31.156Z,47.05
2018-03-27T23:40:58.710Z,48.03
2018-03-27T23:43:26.274Z,46.45
2018-03-27T23:45:53.778Z,43.85
2018-03-27T23:48:22.272Z,49.15
2018-03-27T23:50:49.815Z,42.33
2018-03-27T23:53:17.322Z,48.10
2018-03-27T23:55:44.867Z,47.62
2018-03-27T23:58:12.362Z,47.20
